createdAt,value
2022-10-20T00:06:27.519Z,99580.50
2022-10-20T00:16:29.631Z,99563.47
2022-10-20T00:26:31.261Z,99535.50
2022-10-20T00:36:32.619Z,99516.13
2022-10-20T00:46:38.916Z,99513.59
2022-10-20T00:56:42.096Z,99493.19
2022-10-20T01:06:43.549Z,99485.53
2022-10-20T01:16:54.155Z,99485.88
2022-10-20T01:27:17.133Z,99463.59
2022-10-20T01:37:34.349Z,99441.38
2022-10-20T01:47:49.366Z,99447.91
2022-10-20T01:58:12.010Z,99445.94
2022-10-20T02:08:16.661Z,99418.81
2022-10-20T02:18:20.702Z,99408.31
2022-10-20T02:28:22.103Z,99378.66
2022-10-20T02:38:23.520Z,99365.47
2022-10-20T02:48:25.413Z,99365.63
2022-10-20T02:58:26.887Z,99369.69
2022-10-20T03:08:28.315Z,99352.63
2022-10-20T03:18:29.835Z,99327.50
2022-10-20T03:28:31.279Z,99326.19
2022-10-20T03:38:32.660Z,99326.56
2022-10-20T03:48:34.162Z,99330.09
2022-10-20T03:58:35.625Z,99307.66
2022-10-20T04:08:37.194Z,99299.22
2022-10-20T04:18:38.840Z,99283.66
2022-10-20T04:28:40.457Z,99283.66
2022-10-20T04:38:41.915Z,99245.53
2022-10-20T04:48:44.341Z,99240.16
2022-10-20T04:58:53.422Z,99228.16
2022-10-20T05:08:56.743Z,99212.38
2022-10-20T05:18:58.316Z,99202.69
2022-10-20T05:28:59.783Z,99188.84
2022-10-20T05:39:01.208Z,99168.69
2022-10-20T05:49:02.902Z,99179.50
2022-10-20T05:59:04.286Z,99186.50
2022-10-20T06:09:07.196Z,99171.91
2022-10-20T06:19:08.660Z,99167.56
2022-10-20T06:29:12.010Z,99176.63
2022-10-20T06:39:15.239Z,99188.19
2022-10-20T06:49:16.653Z,99200.00
2022-10-20T06:59:18.032Z,99182.72
2022-10-20T07:09:20.551Z,99194.78
2022-10-20T07:19:22.506Z,99209.28
2022-10-20T07:29:23.973Z,99222.00
2022-10-20T07:39:25.739Z,99218.94
2022-10-20T07:49:44.389Z,99169.78
2022-10-20T07:59:46.396Z,99173.66
2022-10-20T08:09:47.804Z,99189.94
2022-10-20T08:19:51.306Z,99182.97
2022-10-20T08:30:06.248Z,99166.00
2022-10-20T08:40:23.120Z,99170.25
2022-10-20T08:50:27.469Z,99182.72
2022-10-20T09:00:30.986Z,99163.97
2022-10-20T09:10:37.074Z,99177.56
2022-10-20T09:20:55.440Z,99158.81
2022-10-20T09:30:56.997Z,99147.44
2022-10-20T09:41:28.367Z,99177.38
2022-10-20T09:51:29.756Z,99162.34
2022-10-20T10:01:31.262Z,99166.50
2022-10-20T10:11:34.347Z,99163.56
2022-10-20T10:21:51.859Z,99178.56
2022-10-20T10:32:14.960Z,99189.31
2022-10-20T10:42:39.434Z,99179.13
2022-10-20T10:52:50.051Z,99144.94
2022-10-20T11:02:54.335Z,99131.03
2022-10-20T11:13:09.621Z,99126.44
2022-10-20T11:23:16.932Z,99145.53
2022-10-20T11:33:22.963Z,99165.69
2022-10-20T11:43:29.189Z,99151.00
2022-10-20T11:53:39.441Z,99150.94
2022-10-20T12:03:54.938Z,99146.47
2022-10-20T12:14:14.468Z,99134.66
2022-10-20T12:24:38.367Z,99099.81
2022-10-20T12:34:40.462Z,99087.94
2022-10-20T12:44:42.983Z,99079.47
2022-10-20T12:54:48.506Z,99059.03
2022-10-20T13:05:03.812Z,99073.91
2022-10-20T13:15:05.768Z,99061.19
2022-10-20T13:25:14.245Z,99061.03
2022-10-20T13:35:32.688Z,99051.69
2022-10-20T13:45:49.152Z,99044.25
2022-10-20T13:55:58.410Z,99042.19
2022-10-20T14:06:00.022Z,99048.88
2022-10-20T14:16:02.799Z,99029.69
2022-10-20T14:26:06.436Z,99030.53
2022-10-20T14:36:17.707Z,99027.25
2022-10-20T14:46:39.202Z,99005.53
2022-10-20T14:56:44.694Z,99013.00
2022-10-20T15:06:46.185Z,99020.03
2022-10-20T15:16:48.115Z,99011.34
2022-10-20T15:26:49.481Z,99022.88
2022-10-20T15:36:51.185Z,99022.88
2022-10-20T15:46:55.514Z,99013.38
2022-10-20T15:56:57.107Z,98986.72
2022-10-20T16:07:02.574Z,98984.84
2022-10-20T16:17:04.502Z,98988.72
2022-10-20T16:27:06.301Z,98966.41
2022-10-20T16:37:07.997Z,98954.41
2022-10-20T16:47:11.265Z,98961.22
2022-10-20T16:57:13.206Z,98955.00
2022-10-20T17:07:14.728Z,98965.31
2022-10-20T17:17:16.120Z,98950.03
2022-10-20T17:27:17.626Z,98962.53
2022-10-20T17:37:19.064Z,98967.25
2022-10-20T17:47:20.560Z,98964.22
2022-10-20T17:57:21.935Z,98970.44
2022-10-20T18:07:23.458Z,98974.16
2022-10-20T18:17:24.867Z,98969.38
2022-10-20T18:27:26.300Z,98963.00
2022-10-20T18:37:27.686Z,98951.25
2022-10-20T18:47:29.096Z,98958.50
2022-10-20T18:57:32.918Z,98925.91
2022-10-20T19:07:34.811Z,98923.00
2022-10-20T19:17:36.659Z,98915.78
2022-10-20T19:27:38.088Z,98893.53
2022-10-20T19:37:39.485Z,98874.97
2022-10-20T19:47:40.950Z,98864.06
2022-10-20T19:57:42.357Z,98860.75
2022-10-20T20:07:43.820Z,98834.16
2022-10-20T20:17:45.308Z,98843.66
2022-10-20T20:27:46.708Z,98810.47
2022-10-20T20:37:48.106Z,98816.84
2022-10-20T20:47:49.592Z,98821.19
2022-10-20T20:57:50.993Z,98806.94
2022-10-20T21:07:52.493Z,98810.25
2022-10-20T21:17:53.907Z,98806.13
2022-10-20T21:27:55.513Z,98807.34
2022-10-20T21:37:57.285Z,98840.16
2022-10-20T21:47:58.666Z,98830.50
2022-10-20T21:58:00.041Z,98833.00
2022-10-20T22:08:01.422Z,98844.75
2022-10-20T22:18:02.795Z,98839.19
2022-10-20T22:28:05.472Z,98843.31
2022-10-20T22:38:06.969Z,98838.38
2022-10-20T22:48:08.470Z,98834.28
2022-10-20T22:58:09.982Z,98812.00
2022-10-20T23:08:11.493Z,98802.13
2022-10-20T23:18:12.966Z,98800.44
2022-10-20T23:28:14.370Z,98808.06
2022-10-20T23:38:15.774Z,98778.19
2022-10-20T23:48:17.174Z,98747.84
2022-10-20T23:58:21.877Z,98688.41
